Main page
METAR-TAF:

METAR-TAF

Airports :

Sukkur Airport

Sukkur, Pakistan

latitude: 27-43-19N, longitude: 068-47-31E, elevation: 60 m

Current weather observation

The report was made 1 hour and 39 minutes ago, at 17:00 UTC
Calm wind
Temperature 25°C
Humidity 50%
Pressure 1008 hPa
Visibility: 4000 m
haze

METAR: OPSK 211700Z 00000KT 4000 HZ NSC 25/14 Q1008 NOSIG

Time: 23:39 (18:39 UTC)

Forecast

The report was made 3 hours and 9 minutes ago, at 15:30 UTC
Forecast valid from 21 at 18 UTC to 22 at 18 UTC
Wind 3 kt from variable directions
Visibility: 3000 m
haze
Temporary
from 22 at 00 UTC to 22 at 04 UTC
Wind kt from the North
Visibility: 2000 m
haze
From 22 at 0400 UTC
Wind 10 kt from the South
Visibility: 4000 m
haze

TAF: OPSK 211530Z 2118/2218 VRB03KT 3000 HZ NSC TEMPO 2200/2204 00000KT 2000 HZ NSC FM220400 18010KT 4000 HZ NSC

Weather observations and forecasts of more than 4000 airports (METAR and TAF reports).

The available stations are represented by yellow and red dots on the map.

Hover mouse over dot to see the name of the station.

Then click to see weather observations and forecasts.

To change the map : click on the green buttons with a black cross to zoom in, on the green button with a dash to zoom out, or on the green arrows for adjacent maps.


METAR-TAF: